DTTJ METAR and TAF | Updated Today

DTTJ METAR

Djerba Zarzis International Airport

Observation time: 13 min. ago

DTTJ 062100Z 12005KT 9999 FEW020 22/15 Q1024 NOSIG

Need help? Read our tutorial on how to read METARs or read the parsed version below.

Djerba Zarzis International Airport (DTTJ) METAR

  • Weather conditions on Thu, 06 Oct 2022 21:00:00 +0000 (13 min. ago):
  • Present conditions: Dry
  • Clouds: A few at 610 meters
  • Visibility: Greater than 10 km
  • Wind: 120 degrees at 5 knots
  • Temperature: 22 celsius
  • Dew point: 15 celsius
  • Pressure: 1024 millibars
  • Remarks: None


Useful to know...

DTTJ TAF

Djerba Zarzis International Airport

TAF DTTJ 061700Z 0618/0718 07010KT 9999 FEW020 BECMG 0701/0703 VRB02KT BECMG 0715/0717 09010KT
Observation time: 4:13 hr. ago
Need help? Read our tutorial on how to read TAFs or read the parsed version below.

Parsed version of TAF for Djerba Zarzis International Airport (DTTJ)

  • From 06 October at 18:00 UTC, to day 07 of the month at 18:00 UTC
  • Clouds: A few at 610 meters
  • Visibility: Greater than 10 km
  • Wind: 70 degrees at 10
  • Expected to arise soon, from 07 October at 01:00 UTC, to day 07 of the month at 03:00 UTC
  • Wind: Variable at 2
  • Expected to arise soon, from 07 October at 15:00 UTC, to day 07 of the month at 17:00 UTC
  • Wind: 90 degrees at 10

Airports near DTTJ

No airports found within 100nm radius.